createdAt,value
2022-12-23T19:40:44.818Z,100.00
2022-12-23T19:43:48.899Z,98.03
2022-12-23T19:46:52.813Z,96.62
2022-12-23T19:49:57.388Z,95.63
2022-12-23T19:53:01.692Z,98.28
2022-12-23T19:56:09.541Z,95.48
2022-12-23T19:59:13.425Z,94.83
2022-12-23T20:02:18.164Z,95.10
2022-12-23T20:05:22.563Z,94.55
2022-12-23T20:08:26.430Z,93.26
2022-12-23T20:11:34.761Z,94.41
2022-12-23T20:14:38.730Z,95.22
2022-12-23T20:17:42.529Z,94.39
2022-12-23T20:20:46.481Z,93.58
2022-12-23T20:23:50.960Z,93.12
2022-12-23T20:26:56.301Z,93.00
2022-12-23T20:30:00.217Z,93.13
2022-12-23T20:33:04.079Z,93.27
2022-12-23T20:36:08.983Z,92.48
2022-12-23T20:39:15.034Z,92.16
2022-12-23T20:42:20.313Z,93.94
2022-12-23T20:45:24.447Z,93.29
2022-12-23T20:48:33.800Z,94.14
2022-12-23T20:51:38.668Z,93.19
2022-12-23T20:54:42.631Z,92.71
2022-12-23T20:57:47.867Z,92.20
2022-12-23T21:00:52.190Z,93.04
2022-12-23T21:03:57.179Z,91.80
2022-12-23T21:07:01.036Z,91.64
2022-12-23T21:10:05.669Z,91.43
2022-12-23T21:13:10.895Z,92.10
2022-12-23T21:16:15.099Z,92.28
2022-12-23T21:19:21.089Z,93.18
2022-12-23T21:22:24.959Z,92.25
2022-12-23T21:25:28.882Z,92.47
2022-12-23T21:28:34.250Z,92.26
2022-12-23T21:31:40.002Z,91.76
2022-12-23T21:34:44.041Z,92.31
2022-12-23T21:37:47.849Z,91.82
2022-12-23T21:40:52.048Z,91.84
2022-12-23T21:43:58.525Z,91.15
2022-12-23T21:47:02.917Z,92.53
2022-12-23T21:50:08.135Z,91.90
2022-12-23T21:53:12.524Z,91.37
2022-12-23T21:56:19.258Z,92.12
2022-12-23T21:59:27.182Z,93.36
2022-12-23T22:02:35.239Z,91.71
2022-12-23T22:05:39.138Z,92.13
2022-12-23T22:08:43.362Z,92.31
2022-12-23T22:11:48.286Z,91.46
2022-12-23T22:14:53.526Z,91.40
2022-12-23T22:17:57.354Z,91.71
2022-12-23T22:21:05.612Z,91.41
2022-12-23T22:24:10.137Z,90.36
2022-12-23T22:27:13.947Z,90.31
2022-12-23T22:30:19.329Z,91.34
2022-12-23T22:33:23.163Z,90.82
2022-12-23T22:36:27.422Z,90.35
2022-12-23T22:39:31.340Z,90.01
2022-12-23T22:42:35.353Z,90.45
2022-12-23T22:45:40.623Z,89.32
2022-12-23T22:48:45.900Z,89.54
2022-12-23T22:51:49.792Z,88.92
2022-12-23T22:54:53.602Z,88.37
2022-12-23T22:57:57.526Z,89.05
2022-12-23T23:01:03.638Z,88.25
2022-12-23T23:04:08.062Z,88.78
2022-12-23T23:07:11.996Z,88.31
2022-12-23T23:10:16.045Z,88.46
2022-12-23T23:13:20.382Z,89.53
2022-12-23T23:16:27.281Z,89.47
2022-12-23T23:19:31.271Z,89.26
2022-12-23T23:22:35.229Z,88.81
2022-12-23T23:25:39.390Z,88.34
2022-12-23T23:28:44.083Z,88.45
2022-12-23T23:31:49.399Z,88.35
2022-12-23T23:34:53.246Z,88.26
2022-12-23T23:37:57.150Z,87.03
2022-12-23T23:41:01.154Z,87.49
2022-12-23T23:44:05.177Z,89.00
2022-12-23T23:47:10.468Z,87.74
2022-12-23T23:50:14.452Z,88.26
